<?xml version="1.0" encoding="UTF-8"?>
<gpx version="1.1" creator="2bulu-scraper" xmlns="http://www.topografix.com/GPX/1/1">
  <metadata><name>2026-07-29 05:54:46</name><desc>source: 2bulu.com trackId=87696269; exported 2026-09-01T16:22:14.840Z</desc>
    <bounds minlat="29.522629" minlon="103.326813" maxlat="29.583105" maxlon="103.44254"/>
    <link href="https://www.2bulu.com/track/t-zEi5PMT3PRPp%252FR2KBg5Tzw%253D%253D.htm"><text>2bulu 源页面</text></link>
  </metadata>
  <wpt lat="29.570812" lon="103.441445"><ele>535</ele><name></name></wpt>
  <wpt lat="29.565687" lon="103.434303"><ele>583</ele><name></name></wpt>
  <wpt lat="29.565205" lon="103.425888"><ele>691</ele><name></name></wpt>
  <wpt lat="29.564491" lon="103.423006"><ele>754</ele><name>垃圾桶就在边上，扔一地，爱护环境啊</name></wpt>
  <wpt lat="29.565337" lon="103.42125"><ele>828</ele><name></name></wpt>
  <wpt lat="29.56793" lon="103.408958"><ele>839</ele><name></name></wpt>
  <wpt lat="29.567033" lon="103.408487"><ele>815</ele><name></name></wpt>
  <wpt lat="29.57202" lon="103.401353"><ele>766</ele><name></name></wpt>
  <wpt lat="29.572908" lon="103.394813"><ele>742</ele><name></name></wpt>
  <wpt lat="29.573572" lon="103.391945"><ele>701</ele><name></name></wpt>
  <wpt lat="29.571363" lon="103.3917"><ele>716</ele><name></name></wpt>
  <wpt lat="29.569453" lon="103.391037"><ele>731</ele><name></name></wpt>
  <wpt lat="29.564773" lon="103.388999"><ele>755</ele><name>绕行</name></wpt>
  <wpt lat="29.581287" lon="103.382903"><ele>1004</ele><name></name></wpt>
  <wpt lat="29.582095" lon="103.376822"><ele>1115</ele><name></name></wpt>
  <wpt lat="29.574595" lon="103.362463"><ele>1606</ele><name></name></wpt>
  <wpt lat="29.564155" lon="103.356475"><ele>1910</ele><name></name></wpt>
  <wpt lat="29.558788" lon="103.344238"><ele>2057</ele><name></name></wpt>
  <wpt lat="29.52315" lon="103.334738"><ele>3041</ele><name></name></wpt>
  <wpt lat="29.522697" lon="103.336503"><ele>3060</ele><name></name></wpt>
  <trk><name>2026-07-29 05:54:46</name>
      <trkseg>
        <trkpt lat="29.572316" lon="103.44254"><ele>533.1636</ele><time>2026-07-28T13:54:46.000Z</time></trkpt>
        <trkpt lat="29.571869" lon="103.441517"><ele>532.8011</ele><time>2026-07-28T13:56:09.000Z</time></trkpt>
        <trkpt lat="29.571521" lon="103.441235"><ele>534.2699</ele><time>2026-07-28T13:56:41.000Z</time></trkpt>
        <trkpt lat="29.570672" lon="103.441499"><ele>534.85205</ele><time>2026-07-28T13:57:52.000Z</time></trkpt>
        <trkpt lat="29.569889" lon="103.441058"><ele>535.57996</ele><time>2026-07-28T13:59:33.000Z</time></trkpt>
        <trkpt lat="29.56911" lon="103.440963"><ele>528.6818</ele><time>2026-07-28T14:00:31.000Z</time></trkpt>
        <trkpt lat="29.568865" lon="103.440053"><ele>533.36676</ele><time>2026-07-28T14:02:08.000Z</time></trkpt>
        <trkpt lat="29.56807" lon="103.439178"><ele>541.604</ele><time>2026-07-28T14:03:31.000Z</time></trkpt>
        <trkpt lat="29.566896" lon="103.437444"><ele>558.3043</ele><time>2026-07-28T14:05:56.000Z</time></trkpt>
        <trkpt lat="29.565936" lon="103.435131"><ele>572.0036</ele><time>2026-07-28T14:08:49.000Z</time></trkpt>
        <trkpt lat="29.565579" lon="103.434719"><ele>577.7553</ele><time>2026-07-28T14:09:30.000Z</time></trkpt>
        <trkpt lat="29.565776" lon="103.434181"><ele>584.4215</ele><time>2026-07-28T14:10:20.000Z</time></trkpt>
        <trkpt lat="29.56572" lon="103.433087"><ele>591.85675</ele><time>2026-07-28T14:12:19.000Z</time></trkpt>
        <trkpt lat="29.565326" lon="103.431987"><ele>600.0871</ele><time>2026-07-28T14:13:41.000Z</time></trkpt>
        <trkpt lat="29.565546" lon="103.43108"><ele>612.0269</ele><time>2026-07-28T14:14:50.000Z</time></trkpt>
        <trkpt lat="29.565366" lon="103.430823"><ele>615.29785</ele><time>2026-07-28T14:15:14.000Z</time></trkpt>
        <trkpt lat="29.56485" lon="103.428542"><ele>637.6032</ele><time>2026-07-28T14:17:53.000Z</time></trkpt>
        <trkpt lat="29.56542" lon="103.427997"><ele>655.8554</ele><time>2026-07-28T14:18:52.000Z</time></trkpt>
        <trkpt lat="29.565431" lon="103.427544"><ele>658.2151</ele><time>2026-07-28T14:19:24.000Z</time></trkpt>
        <trkpt lat="29.564931" lon="103.426858"><ele>653.0931</ele><time>2026-07-28T14:20:31.000Z</time></trkpt>
        <trkpt lat="29.565203" lon="103.425773"><ele>689.9964</ele><time>2026-07-28T14:23:49.000Z</time></trkpt>
        <trkpt lat="29.564788" lon="103.42516"><ele>702.101</ele><time>2026-07-28T14:24:50.000Z</time></trkpt>
        <trkpt lat="29.56465" lon="103.424349"><ele>714.1037</ele><time>2026-07-28T14:26:43.000Z</time></trkpt>
        <trkpt lat="29.564362" lon="103.423967"><ele>727.8602</ele><time>2026-07-28T14:28:07.000Z</time></trkpt>
        <trkpt lat="29.564525" lon="103.42306"><ele>756.56586</ele><time>2026-07-28T14:30:12.000Z</time></trkpt>
        <trkpt lat="29.564309" lon="103.421406"><ele>798.47076</ele><time>2026-07-28T14:35:49.000Z</time></trkpt>
        <trkpt lat="29.56467" lon="103.421123"><ele>808.3531</ele><time>2026-07-28T14:36:49.000Z</time></trkpt>
        <trkpt lat="29.564917" lon="103.421406"><ele>813.66016</ele><time>2026-07-28T14:37:42.000Z</time></trkpt>
        <trkpt lat="29.565586" lon="103.421105"><ele>831.67</ele><time>2026-07-28T14:39:51.000Z</time></trkpt>
        <trkpt lat="29.566125" lon="103.421136"><ele>842.6152</ele><time>2026-07-28T14:40:59.000Z</time></trkpt>
        <trkpt lat="29.566701" lon="103.419867"><ele>845.90796</ele><time>2026-07-28T14:42:50.000Z</time></trkpt>
        <trkpt lat="29.567113" lon="103.420432"><ele>862.42786</ele><time>2026-07-28T14:44:40.000Z</time></trkpt>
        <trkpt lat="29.56732" lon="103.420493"><ele>872.57404</ele><time>2026-07-28T14:45:25.000Z</time></trkpt>
        <trkpt lat="29.568061" lon="103.420118"><ele>902.79694</ele><time>2026-07-28T14:48:13.000Z</time></trkpt>
        <trkpt lat="29.568659" lon="103.420086"><ele>926.42444</ele><time>2026-07-28T14:50:25.000Z</time></trkpt>
        <trkpt lat="29.569271" lon="103.419801"><ele>926.6283</ele><time>2026-07-28T14:51:46.000Z</time></trkpt>
        <trkpt lat="29.569766" lon="103.419218"><ele>925.083</ele><time>2026-07-28T14:52:54.000Z</time></trkpt>
        <trkpt lat="29.570086" lon="103.417252"><ele>920.3571</ele><time>2026-07-28T14:55:47.000Z</time></trkpt>
        <trkpt lat="29.570373" lon="103.417017"><ele>915.2227</ele><time>2026-07-28T14:56:28.000Z</time></trkpt>
        <trkpt lat="29.570386" lon="103.416308"><ele>915.0819</ele><time>2026-07-28T14:57:28.000Z</time></trkpt>
        <trkpt lat="29.570747" lon="103.416015"><ele>924.5506</ele><time>2026-07-28T14:58:39.000Z</time></trkpt>
        <trkpt lat="29.569978" lon="103.415439"><ele>926.32587</ele><time>2026-07-28T15:00:42.000Z</time></trkpt>
        <trkpt lat="29.56967" lon="103.414755"><ele>923.6548</ele><time>2026-07-28T15:02:46.000Z</time></trkpt>
        <trkpt lat="29.569156" lon="103.414837"><ele>923.3674</ele><time>2026-07-28T15:03:58.000Z</time></trkpt>
        <trkpt lat="29.568986" lon="103.41327"><ele>915.38513</ele><time>2026-07-28T15:07:39.000Z</time></trkpt>
        <trkpt lat="29.56942" lon="103.412684"><ele>912.6241</ele><time>2026-07-28T15:08:36.000Z</time></trkpt>
        <trkpt lat="29.569353" lon="103.41224"><ele>904.6938</ele><time>2026-07-28T15:09:34.000Z</time></trkpt>
        <trkpt lat="29.56862" lon="103.411871"><ele>885.8449</ele><time>2026-07-28T15:11:25.000Z</time></trkpt>
        <trkpt lat="29.568369" lon="103.411545"><ele>880.46405</ele><time>2026-07-28T15:12:05.000Z</time></trkpt>
        <trkpt lat="29.568639" lon="103.41048"><ele>873.09766</ele><time>2026-07-28T15:13:30.000Z</time></trkpt>
        <trkpt lat="29.568381" lon="103.409706"><ele>868.254</ele><time>2026-07-28T15:14:49.000Z</time></trkpt>
        <trkpt lat="29.568483" lon="103.409491"><ele>869.921</ele><time>2026-07-28T15:15:19.000Z</time></trkpt>
        <trkpt lat="29.56825" lon="103.409616"><ele>860.9337</ele><time>2026-07-28T15:16:09.000Z</time></trkpt>
        <trkpt lat="29.567745" lon="103.408503"><ele>827.1911</ele><time>2026-07-28T15:18:37.000Z</time></trkpt>
        <trkpt lat="29.56747" lon="103.408666"><ele>817.8201</ele><time>2026-07-28T15:19:15.000Z</time></trkpt>
        <trkpt lat="29.566726" lon="103.408451"><ele>814.6299</ele><time>2026-07-28T15:20:14.000Z</time></trkpt>
        <trkpt lat="29.566636" lon="103.407806"><ele>813.30304</ele><time>2026-07-28T15:21:01.000Z</time></trkpt>
        <trkpt lat="29.566764" lon="103.407694"><ele>814.6137</ele><time>2026-07-28T15:21:23.000Z</time></trkpt>
        <trkpt lat="29.566589" lon="103.407661"><ele>815.3813</ele><time>2026-07-28T15:21:58.000Z</time></trkpt>
        <trkpt lat="29.566435" lon="103.406988"><ele>811.59607</ele><time>2026-07-28T15:22:42.000Z</time></trkpt>
        <trkpt lat="29.567164" lon="103.405896"><ele>803.1959</ele><time>2026-07-28T15:24:09.000Z</time></trkpt>
        <trkpt lat="29.566738" lon="103.40518"><ele>800.0668</ele><time>2026-07-28T15:25:07.000Z</time></trkpt>
        <trkpt lat="29.567843" lon="103.405094"><ele>797.2194</ele><time>2026-07-28T15:26:27.000Z</time></trkpt>
        <trkpt lat="29.568255" lon="103.404869"><ele>794.8998</ele><time>2026-07-28T15:27:01.000Z</time></trkpt>
        <trkpt lat="29.568802" lon="103.403987"><ele>788.21655</ele><time>2026-07-28T15:28:12.000Z</time></trkpt>
        <trkpt lat="29.569482" lon="103.403792"><ele>781.1843</ele><time>2026-07-28T15:29:08.000Z</time></trkpt>
        <trkpt lat="29.570141" lon="103.402911"><ele>777.2053</ele><time>2026-07-28T15:30:24.000Z</time></trkpt>
        <trkpt lat="29.570947" lon="103.402683"><ele>769.81195</ele><time>2026-07-28T15:31:21.000Z</time></trkpt>
        <trkpt lat="29.571548" lon="103.401982"><ele>764.7311</ele><time>2026-07-28T15:32:24.000Z</time></trkpt>
        <trkpt lat="29.571904" lon="103.401903"><ele>765.463</ele><time>2026-07-28T15:32:52.000Z</time></trkpt>
        <trkpt lat="29.572198" lon="103.401619"><ele>760.30945</ele><time>2026-07-28T15:33:23.000Z</time></trkpt>
        <trkpt lat="29.571795" lon="103.401882"><ele>762.37915</ele><time>2026-07-28T15:34:02.000Z</time></trkpt>
        <trkpt lat="29.572042" lon="103.401287"><ele>771.68286</ele><time>2026-07-28T15:35:56.000Z</time></trkpt>
        <trkpt lat="29.571458" lon="103.397453"><ele>812.3017</ele><time>2026-07-28T15:45:12.000Z</time></trkpt>
        <trkpt lat="29.57178" lon="103.396839"><ele>794.47473</ele><time>2026-07-28T15:46:30.000Z</time></trkpt>
        <trkpt lat="29.57231" lon="103.396695"><ele>776.3221</ele><time>2026-07-28T15:47:52.000Z</time></trkpt>
        <trkpt lat="29.57241" lon="103.396087"><ele>765.5722</ele><time>2026-07-28T15:48:53.000Z</time></trkpt>
        <trkpt lat="29.57276" lon="103.395796"><ele>754.9325</ele><time>2026-07-28T15:49:43.000Z</time></trkpt>
        <trkpt lat="29.572996" lon="103.395297"><ele>751.58154</ele><time>2026-07-28T15:50:24.000Z</time></trkpt>
        <trkpt lat="29.572751" lon="103.394601"><ele>735.6136</ele><time>2026-07-28T15:54:33.000Z</time></trkpt>
        <trkpt lat="29.573009" lon="103.393846"><ele>724.57666</ele><time>2026-07-28T15:55:46.000Z</time></trkpt>
        <trkpt lat="29.573906" lon="103.393332"><ele>719.70825</ele><time>2026-07-28T15:57:17.000Z</time></trkpt>
        <trkpt lat="29.574098" lon="103.392783"><ele>708.06995</ele><time>2026-07-28T15:58:15.000Z</time></trkpt>
        <trkpt lat="29.574033" lon="103.392447"><ele>700.1602</ele><time>2026-07-28T15:58:51.000Z</time></trkpt>
        <trkpt lat="29.57419" lon="103.392359"><ele>694.4498</ele><time>2026-07-28T15:59:23.000Z</time></trkpt>
        <trkpt lat="29.574078" lon="103.392079"><ele>695.7186</ele><time>2026-07-28T16:00:01.000Z</time></trkpt>
        <trkpt lat="29.573789" lon="103.392149"><ele>702.6719</ele><time>2026-07-28T16:01:47.000Z</time></trkpt>
        <trkpt lat="29.573416" lon="103.391791"><ele>705.501</ele><time>2026-07-28T16:02:33.000Z</time></trkpt>
        <trkpt lat="29.572666" lon="103.39192"><ele>717.242</ele><time>2026-07-28T16:04:00.000Z</time></trkpt>
        <trkpt lat="29.571951" lon="103.391666"><ele>714.91986</ele><time>2026-07-28T16:06:11.000Z</time></trkpt>
        <trkpt lat="29.571058" lon="103.391743"><ele>718.6381</ele><time>2026-07-28T16:07:30.000Z</time></trkpt>
        <trkpt lat="29.57002" lon="103.39093"><ele>732.70245</ele><time>2026-07-28T16:09:55.000Z</time></trkpt>
        <trkpt lat="29.569442" lon="103.391034"><ele>730.6574</ele><time>2026-07-28T16:11:09.000Z</time></trkpt>
        <trkpt lat="29.569193" lon="103.390888"><ele>730.7254</ele><time>2026-07-28T16:11:49.000Z</time></trkpt>
        <trkpt lat="29.569091" lon="103.391321"><ele>737.11383</ele><time>2026-07-28T16:12:27.000Z</time></trkpt>
        <trkpt lat="29.568751" lon="103.391111"><ele>754.7162</ele><time>2026-07-28T16:12:51.000Z</time></trkpt>
        <trkpt lat="29.568555" lon="103.390734"><ele>759.054</ele><time>2026-07-28T16:13:11.000Z</time></trkpt>
        <trkpt lat="29.568358" lon="103.390792"><ele>761.98035</ele><time>2026-07-28T16:13:21.000Z</time></trkpt>
        <trkpt lat="29.568303" lon="103.391018"><ele>749.2188</ele><time>2026-07-28T16:14:10.000Z</time></trkpt>
        <trkpt lat="29.568018" lon="103.39072"><ele>753.8434</ele><time>2026-07-28T16:14:52.000Z</time></trkpt>
        <trkpt lat="29.567725" lon="103.39086"><ele>754.55133</ele><time>2026-07-28T16:15:16.000Z</time></trkpt>
        <trkpt lat="29.567664" lon="103.390589"><ele>753.0032</ele><time>2026-07-28T16:15:31.000Z</time></trkpt>
        <trkpt lat="29.567315" lon="103.390287"><ele>756.8946</ele><time>2026-07-28T16:16:10.000Z</time></trkpt>
        <trkpt lat="29.567265" lon="103.389836"><ele>769.3332</ele><time>2026-07-28T16:16:30.000Z</time></trkpt>
        <trkpt lat="29.566835" lon="103.389947"><ele>762.8753</ele><time>2026-07-28T16:17:02.000Z</time></trkpt>
        <trkpt lat="29.566099" lon="103.389687"><ele>739.5545</ele><time>2026-07-28T16:18:12.000Z</time></trkpt>
        <trkpt lat="29.5657" lon="103.389785"><ele>747.77875</ele><time>2026-07-28T16:18:54.000Z</time></trkpt>
        <trkpt lat="29.565569" lon="103.38957"><ele>750.89685</ele><time>2026-07-28T16:19:30.000Z</time></trkpt>
        <trkpt lat="29.56518" lon="103.389457"><ele>754.2181</ele><time>2026-07-28T16:20:05.000Z</time></trkpt>
        <trkpt lat="29.564852" lon="103.388954"><ele>753.7745</ele><time>2026-07-28T16:21:01.000Z</time></trkpt>
        <trkpt lat="29.56371" lon="103.389003"><ele>771.4421</ele><time>2026-07-28T16:24:12.000Z</time></trkpt>
        <trkpt lat="29.563496" lon="103.388843"><ele>762.4816</ele><time>2026-07-28T16:24:40.000Z</time></trkpt>
        <trkpt lat="29.561996" lon="103.389242"><ele>793.4036</ele><time>2026-07-28T16:27:29.000Z</time></trkpt>
        <trkpt lat="29.56207" lon="103.389488"><ele>793.50635</ele><time>2026-07-28T16:28:22.000Z</time></trkpt>
        <trkpt lat="29.562175" lon="103.389437"><ele>792.93207</ele><time>2026-07-28T16:32:08.000Z</time></trkpt>
        <trkpt lat="29.562088" lon="103.389544"><ele>795.00287</ele><time>2026-07-28T16:34:35.000Z</time></trkpt>
        <trkpt lat="29.562382" lon="103.389191"><ele>785.69135</ele><time>2026-07-28T16:35:39.000Z</time></trkpt>
        <trkpt lat="29.562243" lon="103.389059"><ele>783.9699</ele><time>2026-07-28T16:38:03.000Z</time></trkpt>
        <trkpt lat="29.56268" lon="103.38911"><ele>780.8531</ele><time>2026-07-28T16:38:46.000Z</time></trkpt>
        <trkpt lat="29.563565" lon="103.388842"><ele>764.4214</ele><time>2026-07-28T16:40:12.000Z</time></trkpt>
        <trkpt lat="29.563817" lon="103.388968"><ele>762.9095</ele><time>2026-07-28T16:40:35.000Z</time></trkpt>
        <trkpt lat="29.56421" lon="103.388837"><ele>758.6523</ele><time>2026-07-28T16:41:11.000Z</time></trkpt>
        <trkpt lat="29.564843" lon="103.388927"><ele>752.8303</ele><time>2026-07-28T16:42:13.000Z</time></trkpt>
        <trkpt lat="29.565234" lon="103.389502"><ele>754.3267</ele><time>2026-07-28T16:43:23.000Z</time></trkpt>
        <trkpt lat="29.56658" lon="103.389849"><ele>743.1801</ele><time>2026-07-28T16:46:18.000Z</time></trkpt>
        <trkpt lat="29.568002" lon="103.390896"><ele>749.7249</ele><time>2026-07-28T16:48:37.000Z</time></trkpt>
        <trkpt lat="29.56844" lon="103.390721"><ele>755.40424</ele><time>2026-07-28T16:49:46.000Z</time></trkpt>
        <trkpt lat="29.568736" lon="103.391236"><ele>743.86084</ele><time>2026-07-28T16:50:20.000Z</time></trkpt>
        <trkpt lat="29.569907" lon="103.390922"><ele>734.4324</ele><time>2026-07-28T16:52:33.000Z</time></trkpt>
        <trkpt lat="29.570887" lon="103.391642"><ele>718.77826</ele><time>2026-07-28T16:54:39.000Z</time></trkpt>
        <trkpt lat="29.572103" lon="103.391698"><ele>719.10016</ele><time>2026-07-28T16:56:17.000Z</time></trkpt>
        <trkpt lat="29.572772" lon="103.391887"><ele>714.64557</ele><time>2026-07-28T16:57:40.000Z</time></trkpt>
        <trkpt lat="29.573041" lon="103.391714"><ele>712.02106</ele><time>2026-07-28T16:58:06.000Z</time></trkpt>
        <trkpt lat="29.57378" lon="103.392115"><ele>701.72485</ele><time>2026-07-28T16:59:18.000Z</time></trkpt>
        <trkpt lat="29.574043" lon="103.392052"><ele>702.7995</ele><time>2026-07-28T16:59:47.000Z</time></trkpt>
        <trkpt lat="29.574176" lon="103.392246"><ele>692.2427</ele><time>2026-07-28T17:00:09.000Z</time></trkpt>
        <trkpt lat="29.575407" lon="103.391852"><ele>727.355</ele><time>2026-07-28T17:03:35.000Z</time></trkpt>
        <trkpt lat="29.576658" lon="103.391853"><ele>768.9012</ele><time>2026-07-28T17:07:10.000Z</time></trkpt>
        <trkpt lat="29.577181" lon="103.390918"><ele>784.7254</ele><time>2026-07-28T17:08:59.000Z</time></trkpt>
        <trkpt lat="29.577875" lon="103.391075"><ele>794.84564</ele><time>2026-07-28T17:10:33.000Z</time></trkpt>
        <trkpt lat="29.578464" lon="103.389779"><ele>809.32715</ele><time>2026-07-28T17:12:40.000Z</time></trkpt>
        <trkpt lat="29.57833" lon="103.389161"><ele>809.84814</ele><time>2026-07-28T17:13:38.000Z</time></trkpt>
        <trkpt lat="29.57843" lon="103.388863"><ele>807.44775</ele><time>2026-07-28T17:14:04.000Z</time></trkpt>
        <trkpt lat="29.578714" lon="103.388809"><ele>812.4778</ele><time>2026-07-28T17:14:33.000Z</time></trkpt>
        <trkpt lat="29.578982" lon="103.388529"><ele>816.7018</ele><time>2026-07-28T17:15:15.000Z</time></trkpt>
        <trkpt lat="29.57893" lon="103.387259"><ele>827.28827</ele><time>2026-07-28T17:17:25.000Z</time></trkpt>
        <trkpt lat="29.579335" lon="103.386643"><ele>851.99554</ele><time>2026-07-28T17:19:14.000Z</time></trkpt>
        <trkpt lat="29.579448" lon="103.385863"><ele>874.8752</ele><time>2026-07-28T17:21:15.000Z</time></trkpt>
        <trkpt lat="29.580826" lon="103.384217"><ele>931.0587</ele><time>2026-07-28T17:26:33.000Z</time></trkpt>
        <trkpt lat="29.581598" lon="103.384281"><ele>962.7308</ele><time>2026-07-28T17:29:35.000Z</time></trkpt>
        <trkpt lat="29.581282" lon="103.382932"><ele>1004.44073</ele><time>2026-07-28T17:35:22.000Z</time></trkpt>
        <trkpt lat="29.581439" lon="103.383774"><ele>977.11835</ele><time>2026-07-28T17:37:17.000Z</time></trkpt>
        <trkpt lat="29.581885" lon="103.383243"><ele>982.8679</ele><time>2026-07-28T17:38:24.000Z</time></trkpt>
        <trkpt lat="29.581869" lon="103.382724"><ele>990.757</ele><time>2026-07-28T17:39:35.000Z</time></trkpt>
        <trkpt lat="29.58214" lon="103.382006"><ele>991.9371</ele><time>2026-07-28T17:40:37.000Z</time></trkpt>
        <trkpt lat="29.582766" lon="103.381137"><ele>994.1927</ele><time>2026-07-28T17:42:12.000Z</time></trkpt>
        <trkpt lat="29.582767" lon="103.3807"><ele>992.8054</ele><time>2026-07-28T17:42:44.000Z</time></trkpt>
        <trkpt lat="29.583105" lon="103.379984"><ele>999.03296</ele><time>2026-07-28T17:43:46.000Z</time></trkpt>
        <trkpt lat="29.582998" lon="103.379483"><ele>1013.74426</ele><time>2026-07-28T17:44:58.000Z</time></trkpt>
        <trkpt lat="29.582698" lon="103.379581"><ele>1017.1795</ele><time>2026-07-28T17:45:26.000Z</time></trkpt>
        <trkpt lat="29.582687" lon="103.379453"><ele>1019.4371</ele><time>2026-07-28T17:45:46.000Z</time></trkpt>
        <trkpt lat="29.583034" lon="103.378908"><ele>1027.1183</ele><time>2026-07-28T17:46:57.000Z</time></trkpt>
        <trkpt lat="29.582733" lon="103.378426"><ele>1049.3125</ele><time>2026-07-28T17:48:47.000Z</time></trkpt>
        <trkpt lat="29.582492" lon="103.37833"><ele>1063.9128</ele><time>2026-07-28T17:49:34.000Z</time></trkpt>
        <trkpt lat="29.582414" lon="103.377456"><ele>1088.196</ele><time>2026-07-28T17:52:16.000Z</time></trkpt>
        <trkpt lat="29.58212" lon="103.37717"><ele>1104.3035</ele><time>2026-07-28T17:53:54.000Z</time></trkpt>
        <trkpt lat="29.582119" lon="103.376751"><ele>1122.7532</ele><time>2026-07-28T17:55:19.000Z</time></trkpt>
        <trkpt lat="29.581735" lon="103.376512"><ele>1150.0406</ele><time>2026-07-28T17:58:25.000Z</time></trkpt>
        <trkpt lat="29.581763" lon="103.376199"><ele>1162.1085</ele><time>2026-07-28T17:59:40.000Z</time></trkpt>
        <trkpt lat="29.581087" lon="103.37649"><ele>1205.9829</ele><time>2026-07-28T18:04:04.000Z</time></trkpt>
        <trkpt lat="29.5809" lon="103.376382"><ele>1221.2223</ele><time>2026-07-28T18:05:39.000Z</time></trkpt>
        <trkpt lat="29.580941" lon="103.376178"><ele>1231.2273</ele><time>2026-07-28T18:06:47.000Z</time></trkpt>
        <trkpt lat="29.580355" lon="103.376348"><ele>1239.882</ele><time>2026-07-28T18:08:02.000Z</time></trkpt>
        <trkpt lat="29.580008" lon="103.376239"><ele>1239.6592</ele><time>2026-07-28T18:08:38.000Z</time></trkpt>
        <trkpt lat="29.579844" lon="103.375663"><ele>1244.6804</ele><time>2026-07-28T18:09:37.000Z</time></trkpt>
        <trkpt lat="29.58068" lon="103.375329"><ele>1289.6058</ele><time>2026-07-28T18:13:14.000Z</time></trkpt>
        <trkpt lat="29.580647" lon="103.373996"><ele>1343.8497</ele><time>2026-07-28T18:18:09.000Z</time></trkpt>
        <trkpt lat="29.579584" lon="103.372811"><ele>1388.2949</ele><time>2026-07-28T18:22:42.000Z</time></trkpt>
        <trkpt lat="29.578985" lon="103.372475"><ele>1406.0371</ele><time>2026-07-28T18:24:35.000Z</time></trkpt>
        <trkpt lat="29.578282" lon="103.371612"><ele>1427.496</ele><time>2026-07-28T18:27:18.000Z</time></trkpt>
        <trkpt lat="29.577723" lon="103.371208"><ele>1457.1862</ele><time>2026-07-28T18:30:07.000Z</time></trkpt>
        <trkpt lat="29.577449" lon="103.370585"><ele>1465.4602</ele><time>2026-07-28T18:31:19.000Z</time></trkpt>
        <trkpt lat="29.576977" lon="103.370147"><ele>1467.7692</ele><time>2026-07-28T18:32:30.000Z</time></trkpt>
        <trkpt lat="29.576928" lon="103.368664"><ele>1473.869</ele><time>2026-07-28T18:35:14.000Z</time></trkpt>
        <trkpt lat="29.576998" lon="103.36809"><ele>1487.8201</ele><time>2026-07-28T18:36:34.000Z</time></trkpt>
        <trkpt lat="29.577213" lon="103.367738"><ele>1508.7958</ele><time>2026-07-28T18:38:32.000Z</time></trkpt>
        <trkpt lat="29.576373" lon="103.366672"><ele>1500.9058</ele><time>2026-07-28T18:40:48.000Z</time></trkpt>
        <trkpt lat="29.576207" lon="103.366128"><ele>1485.0985</ele><time>2026-07-28T18:42:04.000Z</time></trkpt>
        <trkpt lat="29.575148" lon="103.365313"><ele>1489.9882</ele><time>2026-07-28T18:48:23.000Z</time></trkpt>
        <trkpt lat="29.574438" lon="103.364105"><ele>1540.6478</ele><time>2026-07-28T18:53:22.000Z</time></trkpt>
        <trkpt lat="29.574392" lon="103.363766"><ele>1553.4034</ele><time>2026-07-28T18:54:24.000Z</time></trkpt>
        <trkpt lat="29.574615" lon="103.363686"><ele>1564.4113</ele><time>2026-07-28T18:55:41.000Z</time></trkpt>
        <trkpt lat="29.574593" lon="103.362976"><ele>1587.8295</ele><time>2026-07-28T18:57:42.000Z</time></trkpt>
        <trkpt lat="29.574902" lon="103.362661"><ele>1597.0001</ele><time>2026-07-28T18:58:55.000Z</time></trkpt>
        <trkpt lat="29.574808" lon="103.362476"><ele>1601.9071</ele><time>2026-07-28T18:59:24.000Z</time></trkpt>
        <trkpt lat="29.573985" lon="103.362547"><ele>1604.5214</ele><time>2026-07-28T19:01:23.000Z</time></trkpt>
        <trkpt lat="29.572867" lon="103.361611"><ele>1651.0406</ele><time>2026-07-28T19:05:32.000Z</time></trkpt>
        <trkpt lat="29.571594" lon="103.361864"><ele>1694.6</ele><time>2026-07-28T19:09:41.000Z</time></trkpt>
        <trkpt lat="29.569976" lon="103.361185"><ele>1700.7847</ele><time>2026-07-28T19:12:58.000Z</time></trkpt>
        <trkpt lat="29.568857" lon="103.36025"><ele>1724.1064</ele><time>2026-07-28T19:16:01.000Z</time></trkpt>
        <trkpt lat="29.568723" lon="103.359688"><ele>1732.1117</ele><time>2026-07-28T19:17:14.000Z</time></trkpt>
        <trkpt lat="29.568257" lon="103.359704"><ele>1734.651</ele><time>2026-07-28T19:18:06.000Z</time></trkpt>
        <trkpt lat="29.568105" lon="103.359525"><ele>1735.9512</ele><time>2026-07-28T19:18:29.000Z</time></trkpt>
        <trkpt lat="29.567834" lon="103.359584"><ele>1735.3812</ele><time>2026-07-28T19:18:57.000Z</time></trkpt>
        <trkpt lat="29.567477" lon="103.359381"><ele>1743.8624</ele><time>2026-07-28T19:19:51.000Z</time></trkpt>
        <trkpt lat="29.567112" lon="103.359437"><ele>1752.6296</ele><time>2026-07-28T19:21:04.000Z</time></trkpt>
        <trkpt lat="29.566382" lon="103.358905"><ele>1774.5138</ele><time>2026-07-28T19:23:40.000Z</time></trkpt>
        <trkpt lat="29.565951" lon="103.357593"><ele>1819.3356</ele><time>2026-07-28T19:27:49.000Z</time></trkpt>
        <trkpt lat="29.565364" lon="103.356836"><ele>1851.7036</ele><time>2026-07-28T19:30:48.000Z</time></trkpt>
        <trkpt lat="29.564861" lon="103.356543"><ele>1865.6904</ele><time>2026-07-28T19:32:20.000Z</time></trkpt>
        <trkpt lat="29.564592" lon="103.356041"><ele>1877.4108</ele><time>2026-07-28T19:33:38.000Z</time></trkpt>
        <trkpt lat="29.564138" lon="103.356449"><ele>1908.6947</ele><time>2026-07-28T19:36:43.000Z</time></trkpt>
        <trkpt lat="29.563882" lon="103.355225"><ele>1880.0858</ele><time>2026-07-28T19:39:21.000Z</time></trkpt>
        <trkpt lat="29.563291" lon="103.354424"><ele>1880.1776</ele><time>2026-07-28T19:40:55.000Z</time></trkpt>
        <trkpt lat="29.562912" lon="103.352763"><ele>1862.7848</ele><time>2026-07-28T19:43:58.000Z</time></trkpt>
        <trkpt lat="29.56314" lon="103.352322"><ele>1846.4791</ele><time>2026-07-28T19:45:04.000Z</time></trkpt>
        <trkpt lat="29.562811" lon="103.350327"><ele>1827.2527</ele><time>2026-07-28T19:50:01.000Z</time></trkpt>
        <trkpt lat="29.563219" lon="103.349134"><ele>1824.9209</ele><time>2026-07-28T19:51:53.000Z</time></trkpt>
        <trkpt lat="29.563269" lon="103.348373"><ele>1831.0873</ele><time>2026-07-28T19:52:57.000Z</time></trkpt>
        <trkpt lat="29.563563" lon="103.347885"><ele>1831.0304</ele><time>2026-07-28T19:53:46.000Z</time></trkpt>
        <trkpt lat="29.563549" lon="103.347453"><ele>1822.486</ele><time>2026-07-28T19:54:27.000Z</time></trkpt>
        <trkpt lat="29.562317" lon="103.346143"><ele>1811.6366</ele><time>2026-07-28T19:57:07.000Z</time></trkpt>
        <trkpt lat="29.562051" lon="103.345668"><ele>1809.2871</ele><time>2026-07-28T19:57:51.000Z</time></trkpt>
        <trkpt lat="29.561601" lon="103.345604"><ele>1813.7185</ele><time>2026-07-28T19:58:37.000Z</time></trkpt>
        <trkpt lat="29.561198" lon="103.345082"><ele>1828.7563</ele><time>2026-07-28T20:00:12.000Z</time></trkpt>
        <trkpt lat="29.560892" lon="103.345081"><ele>1857.7108</ele><time>2026-07-28T20:02:08.000Z</time></trkpt>
        <trkpt lat="29.560704" lon="103.344712"><ele>1883.0508</ele><time>2026-07-28T20:04:17.000Z</time></trkpt>
        <trkpt lat="29.560264" lon="103.344472"><ele>1911.2375</ele><time>2026-07-28T20:06:46.000Z</time></trkpt>
        <trkpt lat="29.560047" lon="103.344202"><ele>1936.0515</ele><time>2026-07-28T20:08:42.000Z</time></trkpt>
        <trkpt lat="29.56013" lon="103.343927"><ele>1953.0631</ele><time>2026-07-28T20:10:16.000Z</time></trkpt>
        <trkpt lat="29.55969" lon="103.343503"><ele>1979.2307</ele><time>2026-07-28T20:12:48.000Z</time></trkpt>
        <trkpt lat="29.559315" lon="103.343592"><ele>2005.119</ele><time>2026-07-28T20:15:12.000Z</time></trkpt>
        <trkpt lat="29.559204" lon="103.343822"><ele>2015.5121</ele><time>2026-07-28T20:17:48.000Z</time></trkpt>
        <trkpt lat="29.559002" lon="103.343658"><ele>2030.8229</ele><time>2026-07-28T20:19:12.000Z</time></trkpt>
        <trkpt lat="29.558885" lon="103.343773"><ele>2041.081</ele><time>2026-07-28T20:20:20.000Z</time></trkpt>
        <trkpt lat="29.558846" lon="103.344341"><ele>2055.201</ele><time>2026-07-28T20:22:09.000Z</time></trkpt>
        <trkpt lat="29.558148" lon="103.343942"><ele>2081.8928</ele><time>2026-07-28T20:25:46.000Z</time></trkpt>
        <trkpt lat="29.55781" lon="103.344031"><ele>2066.509</ele><time>2026-07-28T20:26:15.000Z</time></trkpt>
        <trkpt lat="29.557143" lon="103.343613"><ele>2085.2517</ele><time>2026-07-28T20:28:14.000Z</time></trkpt>
        <trkpt lat="29.556691" lon="103.343728"><ele>2102.5178</ele><time>2026-07-28T20:30:00.000Z</time></trkpt>
        <trkpt lat="29.555841" lon="103.344981"><ele>2164.3289</ele><time>2026-07-28T20:35:58.000Z</time></trkpt>
        <trkpt lat="29.555586" lon="103.344933"><ele>2175.7727</ele><time>2026-07-28T20:37:08.000Z</time></trkpt>
        <trkpt lat="29.555455" lon="103.345146"><ele>2190.131</ele><time>2026-07-28T20:38:29.000Z</time></trkpt>
        <trkpt lat="29.555248" lon="103.344991"><ele>2198.8372</ele><time>2026-07-28T20:39:32.000Z</time></trkpt>
        <trkpt lat="29.554745" lon="103.34533"><ele>2216.218</ele><time>2026-07-28T20:42:01.000Z</time></trkpt>
        <trkpt lat="29.554068" lon="103.345504"><ele>2252.5615</ele><time>2026-07-28T20:45:13.000Z</time></trkpt>
        <trkpt lat="29.553626" lon="103.345311"><ele>2265.6057</ele><time>2026-07-28T20:46:39.000Z</time></trkpt>
        <trkpt lat="29.552426" lon="103.345443"><ele>2279.504</ele><time>2026-07-28T20:49:27.000Z</time></trkpt>
        <trkpt lat="29.552415" lon="103.345216"><ele>2279.1257</ele><time>2026-07-28T20:49:55.000Z</time></trkpt>
        <trkpt lat="29.551995" lon="103.345044"><ele>2276.6008</ele><time>2026-07-28T20:50:44.000Z</time></trkpt>
        <trkpt lat="29.551578" lon="103.3443"><ele>2271.877</ele><time>2026-07-28T20:52:22.000Z</time></trkpt>
        <trkpt lat="29.550758" lon="103.344097"><ele>2267.563</ele><time>2026-07-28T20:53:53.000Z</time></trkpt>
        <trkpt lat="29.550324" lon="103.343616"><ele>2269.1702</ele><time>2026-07-28T20:55:05.000Z</time></trkpt>
        <trkpt lat="29.549377" lon="103.342212"><ele>2275.0627</ele><time>2026-07-28T20:57:41.000Z</time></trkpt>
        <trkpt lat="29.549046" lon="103.341217"><ele>2286.2097</ele><time>2026-07-28T21:00:02.000Z</time></trkpt>
        <trkpt lat="29.548386" lon="103.341285"><ele>2314.8213</ele><time>2026-07-28T21:02:43.000Z</time></trkpt>
        <trkpt lat="29.547384" lon="103.341038"><ele>2337.7637</ele><time>2026-07-28T21:05:46.000Z</time></trkpt>
        <trkpt lat="29.547032" lon="103.339676"><ele>2385.4214</ele><time>2026-07-28T21:10:47.000Z</time></trkpt>
        <trkpt lat="29.546175" lon="103.338389"><ele>2449.616</ele><time>2026-07-28T21:18:01.000Z</time></trkpt>
        <trkpt lat="29.546596" lon="103.337276"><ele>2462.7537</ele><time>2026-07-28T21:20:38.000Z</time></trkpt>
        <trkpt lat="29.546424" lon="103.336748"><ele>2463.8096</ele><time>2026-07-28T21:22:26.000Z</time></trkpt>
        <trkpt lat="29.546772" lon="103.335176"><ele>2438.4878</ele><time>2026-07-28T21:25:45.000Z</time></trkpt>
        <trkpt lat="29.546513" lon="103.334859"><ele>2432.6704</ele><time>2026-07-28T21:26:40.000Z</time></trkpt>
        <trkpt lat="29.545893" lon="103.334727"><ele>2441.3555</ele><time>2026-07-28T21:28:25.000Z</time></trkpt>
        <trkpt lat="29.545178" lon="103.334115"><ele>2438.2192</ele><time>2026-07-28T21:30:38.000Z</time></trkpt>
        <trkpt lat="29.544867" lon="103.334076"><ele>2435.763</ele><time>2026-07-28T21:31:16.000Z</time></trkpt>
        <trkpt lat="29.544608" lon="103.334264"><ele>2433.6685</ele><time>2026-07-28T21:31:52.000Z</time></trkpt>
        <trkpt lat="29.543671" lon="103.333944"><ele>2430.8962</ele><time>2026-07-28T21:33:43.000Z</time></trkpt>
        <trkpt lat="29.543162" lon="103.33303"><ele>2426.1729</ele><time>2026-07-28T21:36:01.000Z</time></trkpt>
        <trkpt lat="29.542545" lon="103.332591"><ele>2427.4075</ele><time>2026-07-28T21:37:20.000Z</time></trkpt>
        <trkpt lat="29.542315" lon="103.332115"><ele>2427.9575</ele><time>2026-07-28T21:38:10.000Z</time></trkpt>
        <trkpt lat="29.542172" lon="103.332001"><ele>2426.3235</ele><time>2026-07-28T21:38:32.000Z</time></trkpt>
        <trkpt lat="29.541712" lon="103.332078"><ele>2421.6013</ele><time>2026-07-28T21:39:33.000Z</time></trkpt>
        <trkpt lat="29.541763" lon="103.33168"><ele>2423.017</ele><time>2026-07-28T21:40:11.000Z</time></trkpt>
        <trkpt lat="29.540623" lon="103.331786"><ele>2436.7456</ele><time>2026-07-28T21:42:19.000Z</time></trkpt>
        <trkpt lat="29.538874" lon="103.333075"><ele>2457.8748</ele><time>2026-07-28T21:46:32.000Z</time></trkpt>
        <trkpt lat="29.538383" lon="103.333194"><ele>2457.913</ele><time>2026-07-28T21:47:19.000Z</time></trkpt>
        <trkpt lat="29.537608" lon="103.333763"><ele>2464.5007</ele><time>2026-07-28T21:48:51.000Z</time></trkpt>
        <trkpt lat="29.537325" lon="103.333803"><ele>2472.7964</ele><time>2026-07-28T21:49:36.000Z</time></trkpt>
        <trkpt lat="29.537173" lon="103.334134"><ele>2476.169</ele><time>2026-07-28T21:50:59.000Z</time></trkpt>
        <trkpt lat="29.536665" lon="103.334336"><ele>2490.4355</ele><time>2026-07-28T21:52:30.000Z</time></trkpt>
        <trkpt lat="29.536185" lon="103.334307"><ele>2494.0955</ele><time>2026-07-28T21:53:26.000Z</time></trkpt>
        <trkpt lat="29.535423" lon="103.333709"><ele>2513.6074</ele><time>2026-07-28T21:55:40.000Z</time></trkpt>
        <trkpt lat="29.535354" lon="103.333001"><ele>2517.3906</ele><time>2026-07-28T21:56:48.000Z</time></trkpt>
        <trkpt lat="29.535033" lon="103.332542"><ele>2517.0222</ele><time>2026-07-28T21:57:30.000Z</time></trkpt>
        <trkpt lat="29.534866" lon="103.331385"><ele>2523.1604</ele><time>2026-07-28T21:58:53.000Z</time></trkpt>
        <trkpt lat="29.534687" lon="103.331524"><ele>2525.0586</ele><time>2026-07-28T21:59:13.000Z</time></trkpt>
        <trkpt lat="29.534848" lon="103.332894"><ele>2535.0757</ele><time>2026-07-28T22:00:54.000Z</time></trkpt>
        <trkpt lat="29.533886" lon="103.333217"><ele>2571.281</ele><time>2026-07-28T22:03:53.000Z</time></trkpt>
        <trkpt lat="29.53263" lon="103.332004"><ele>2630.8398</ele><time>2026-07-28T22:09:58.000Z</time></trkpt>
        <trkpt lat="29.53231" lon="103.331197"><ele>2662.0688</ele><time>2026-07-28T22:13:19.000Z</time></trkpt>
        <trkpt lat="29.532191" lon="103.33143"><ele>2669.904</ele><time>2026-07-28T22:14:11.000Z</time></trkpt>
        <trkpt lat="29.532165" lon="103.330227"><ele>2700.4365</ele><time>2026-07-28T22:17:56.000Z</time></trkpt>
        <trkpt lat="29.531855" lon="103.330206"><ele>2719.962</ele><time>2026-07-28T22:19:44.000Z</time></trkpt>
        <trkpt lat="29.531178" lon="103.32956"><ele>2767.3562</ele><time>2026-07-28T22:24:56.000Z</time></trkpt>
        <trkpt lat="29.531209" lon="103.327256"><ele>2813.452</ele><time>2026-07-28T22:31:33.000Z</time></trkpt>
        <trkpt lat="29.530763" lon="103.326813"><ele>2832.088</ele><time>2026-07-28T22:34:02.000Z</time></trkpt>
        <trkpt lat="29.530126" lon="103.327107"><ele>2858.117</ele><time>2026-07-28T22:36:32.000Z</time></trkpt>
        <trkpt lat="29.529717" lon="103.327752"><ele>2861.4207</ele><time>2026-07-28T22:38:07.000Z</time></trkpt>
        <trkpt lat="29.52926" lon="103.327849"><ele>2862.529</ele><time>2026-07-28T22:39:11.000Z</time></trkpt>
        <trkpt lat="29.528568" lon="103.329897"><ele>2904.42</ele><time>2026-07-28T22:44:34.000Z</time></trkpt>
        <trkpt lat="29.528289" lon="103.330271"><ele>2909.9482</ele><time>2026-07-28T22:45:22.000Z</time></trkpt>
        <trkpt lat="29.528322" lon="103.330546"><ele>2912.5347</ele><time>2026-07-28T22:45:55.000Z</time></trkpt>
        <trkpt lat="29.527695" lon="103.331633"><ele>2930.5356</ele><time>2026-07-28T22:49:18.000Z</time></trkpt>
        <trkpt lat="29.527578" lon="103.332335"><ele>2947.9229</ele><time>2026-07-28T22:51:29.000Z</time></trkpt>
        <trkpt lat="29.527418" lon="103.332482"><ele>2954.519</ele><time>2026-07-28T22:52:12.000Z</time></trkpt>
        <trkpt lat="29.527151" lon="103.332276"><ele>2954.0112</ele><time>2026-07-28T22:52:56.000Z</time></trkpt>
        <trkpt lat="29.527054" lon="103.332399"><ele>2960.7676</ele><time>2026-07-28T22:53:20.000Z</time></trkpt>
        <trkpt lat="29.526996" lon="103.333389"><ele>2972.9668</ele><time>2026-07-28T22:55:34.000Z</time></trkpt>
        <trkpt lat="29.525735" lon="103.334039"><ele>3005.5232</ele><time>2026-07-28T22:59:28.000Z</time></trkpt>
        <trkpt lat="29.524987" lon="103.334785"><ele>3024.456</ele><time>2026-07-28T23:02:15.000Z</time></trkpt>
        <trkpt lat="29.523783" lon="103.334936"><ele>3039.8926</ele><time>2026-07-28T23:04:49.000Z</time></trkpt>
        <trkpt lat="29.523037" lon="103.334704"><ele>3042.5105</ele><time>2026-07-28T23:06:21.000Z</time></trkpt>
        <trkpt lat="29.522737" lon="103.334774"><ele>3049.2527</ele><time>2026-07-28T23:07:02.000Z</time></trkpt>
        <trkpt lat="29.522769" lon="103.335704"><ele>3062.8137</ele><time>2026-07-28T23:09:07.000Z</time></trkpt>
        <trkpt lat="29.522629" lon="103.335949"><ele>3070.0732</ele><time>2026-07-28T23:10:17.000Z</time></trkpt>
      </trkseg>
  </trk>
</gpx>